Time;durP1;ratioP1;P1;durP2;ratioP2;P2;SDS_P1;SDS_P2;PMS_P1;PMS_P2;Temp;Humidity;BMP_temperature;BMP_pressure;BME280_temperature;BME280_humidity;BME280_pressure;Samples;Min_cycle;Max_cycle;Signal;HPM_P1;HPM_P2
2022/06/22 00:01:10;;;;;;;1.10;1.05;;;22.60;60.90;22.20;97741.00;;;;5094515;28;20209;-75
2022/06/22 00:03:37;;;;;;;0.88;0.88;;;22.60;60.70;22.20;97743.00;;;;5094634;28;20641;-75
2022/06/22 00:06:06;;;;;;;1.50;1.40;;;22.60;61.70;22.10;97746.00;;;;5094316;28;20301;-75
2022/06/22 00:08:37;;;;;;;0.88;0.88;;;22.60;60.50;22.00;97735.00;;;;5094397;28;20649;-73
2022/06/22 00:11:11;;;;;;;0.70;0.70;;;22.50;61.00;22.00;97729.00;;;;5094315;28;20199;-75
2022/06/22 00:13:45;;;;;;;1.02;1.02;;;22.50;61.00;21.90;97722.00;;;;5094185;28;20720;-75
2022/06/22 00:16:18;;;;;;;1.40;1.30;;;22.40;61.20;21.90;97719.00;;;;5094185;28;20626;-75
2022/06/22 00:18:47;;;;;;;0.60;0.60;;;22.40;61.30;22.00;97715.00;;;;5094086;28;20198;-75
2022/06/22 00:21:22;;;;;;;0.88;0.88;;;22.40;61.00;22.10;97701.00;;;;5094252;28;20694;-75
2022/06/22 00:23:52;;;;;;;2.15;1.30;;;22.40;61.20;22.00;97702.00;;;;5094263;28;20237;-74
2022/06/22 00:26:31;;;;;;;1.00;1.00;;;22.50;61.10;21.90;97691.00;;;;5094171;28;20246;-74
2022/06/22 00:29:21;;;;;;;0.50;0.50;;;22.40;62.20;22.00;97679.00;;;;5096057;28;20214;-74
2022/06/22 00:32:13;;;;;;;0.73;0.73;;;22.40;61.50;21.90;97684.00;;;;5095719;28;20221;-75
2022/06/22 00:34:39;;;;;;;1.08;1.08;;;22.30;61.90;21.80;97679.00;;;;5093877;28;20205;-75
2022/06/22 00:37:17;;;;;;;1.48;1.38;;;22.30;62.20;21.70;97680.00;;;;5093847;28;20278;-75
2022/06/22 00:39:46;;;;;;;0.70;0.70;;;22.20;62.40;21.70;97680.00;;;;5093956;28;20225;-73
2022/06/22 00:42:29;;;;;;;0.60;0.60;;;22.20;62.30;21.60;97677.00;;;;5093005;28;20285;-75
2022/06/22 00:45:02;;;;;;;0.93;0.93;;;22.10;62.60;21.70;97685.00;;;;5093897;28;20202;-75
2022/06/22 00:47:33;;;;;;;1.02;1.02;;;22.10;62.60;21.70;97680.00;;;;5093895;28;20278;-75
2022/06/22 00:50:10;;;;;;;0.90;0.90;;;22.10;62.70;21.70;97665.00;;;;5093785;28;20207;-74
2022/06/22 00:52:45;;;;;;;0.85;0.85;;;22.10;62.30;21.70;97700.00;;;;5093562;28;20233;-75
2022/06/22 00:55:27;;;;;;;0.90;0.90;;;22.20;61.70;21.60;97698.00;;;;5093739;28;20595;-74
2022/06/22 00:58:17;;;;;;;0.88;0.88;;;22.10;62.30;21.50;97700.00;;;;5093681;28;20221;-75
2022/06/22 01:00:55;;;;;;;0.73;0.73;;;22.00;62.40;21.30;97700.00;;;;5093627;28;20198;-75
2022/06/22 01:03:33;;;;;;;0.73;0.73;;;21.90;63.00;21.30;97693.00;;;;5093755;28;20247;-75
2022/06/22 01:06:07;;;;;;;1.02;1.02;;;21.80;63.00;21.40;97705.00;;;;5093425;28;20225;-73
2022/06/22 01:08:45;;;;;;;1.48;1.35;;;21.80;63.00;21.50;97711.00;;;;5093928;28;20299;-75
2022/06/22 01:14:21;;;;;;;0.63;0.63;;;22.00;62.90;21.40;97731.00;;;;5063114;28;20266;-75
2022/06/22 01:16:55;;;;;;;0.85;0.85;;;21.90;63.20;21.40;97742.00;;;;5076080;28;20297;-75
2022/06/22 01:19:44;;;;;;;0.80;0.80;;;21.90;62.70;21.40;97740.00;;;;5093342;28;20226;-75
2022/06/22 01:22:47;;;;;;;0.57;0.57;;;21.90;62.30;21.50;97745.00;;;;5093355;28;20201;-75
2022/06/22 01:25:42;;;;;;;0.93;0.93;;;21.90;62.40;21.20;97736.00;;;;5081402;28;20210;-74
2022/06/22 01:28:12;;;;;;;0.70;0.70;;;21.70;62.20;21.10;97736.00;;;;5093330;28;20565;-75
2022/06/22 01:30:43;;;;;;;1.42;1.33;;;21.70;62.70;21.10;97728.00;;;;5093241;28;20277;-75
2022/06/22 01:33:23;;;;;;;1.30;1.20;;;21.60;62.60;21.30;97725.00;;;;5075464;28;20230;-76
2022/06/22 01:35:55;;;;;;;0.50;0.50;;;21.70;62.80;21.20;97716.00;;;;5093254;28;20225;-74
2022/06/22 01:38:25;;;;;;;0.60;0.60;;;21.70;62.30;21.20;97710.00;;;;5093373;28;20221;-76
2022/06/22 01:41:05;;;;;;;0.57;0.57;;;21.70;62.30;21.20;97701.00;;;;5093176;28;20206;-75
2022/06/22 01:43:40;;;;;;;0.50;0.50;;;21.70;62.60;21.20;97695.00;;;;5093098;28;20667;-75
2022/06/22 01:46:24;;;;;;;1.15;0.82;;;21.60;62.30;21.20;97699.00;;;;5093045;28;20554;-75
2022/06/22 01:49:00;;;;;;;0.70;0.70;;;21.60;61.80;21.10;97702.00;;;;5093089;28;20187;-75
2022/06/22 01:51:33;;;;;;;1.50;1.40;;;21.60;61.60;21.00;97694.00;;;;5093050;28;20277;-75
2022/06/22 01:54:05;;;;;;;1.23;1.23;;;21.50;62.10;21.10;97694.00;;;;5095943;28;20218;-75
2022/06/22 01:56:43;;;;;;;0.55;0.55;;;21.50;62.30;21.20;97660.00;;;;5096530;28;20665;-75
2022/06/22 01:59:21;;;;;;;0.70;0.70;;;21.60;61.60;21.10;97704.00;;;;5096472;28;20677;-76
2022/06/22 02:01:57;;;;;;;13.13;1.95;;;21.60;61.70;21.00;97710.00;;;;5096416;28;20285;-74
2022/06/22 02:04:36;;;;;;;1.40;1.30;;;21.50;61.70;21.10;97712.00;;;;5096266;28;20198;-73
2022/06/22 02:10:18;;;;;;;1.07;1.07;;;21.60;62.20;21.00;97715.00;;;;5096277;28;20203;-75
2022/06/22 02:13:00;;;;;;;1.17;1.17;;;21.40;62.40;21.10;97712.00;;;;5096331;28;20669;-75
2022/06/22 02:15:49;;;;;;;0.50;0.50;;;21.50;61.90;20.90;97715.00;;;;5078349;28;20551;-75
2022/06/22 02:18:28;;;;;;;1.08;1.08;;;21.40;62.60;20.90;97726.00;;;;5096054;28;20277;-74
2022/06/22 02:20:55;;;;;;;0.65;0.65;;;21.40;62.70;21.10;97744.00;;;;5096158;28;20626;-76
2022/06/22 02:23:28;;;;;;;1.27;1.17;;;21.50;62.40;21.20;97747.00;;;;5096025;28;20191;-74
2022/06/22 02:26:24;;;;;;;0.90;0.90;;;21.60;60.90;21.10;97737.00;;;;5095938;28;20602;-75
2022/06/22 02:28:51;;;;;;;0.73;0.73;;;21.50;60.60;21.20;97733.00;;;;5096008;28;20202;-75
2022/06/22 02:31:21;;;;;;;1.42;1.40;;;21.50;60.90;21.20;97716.00;;;;5095926;28;20226;-75
2022/06/22 02:33:53;;;;;;;2.50;1.67;;;21.50;60.90;21.30;97705.00;;;;5095838;28;20214;-75
2022/06/22 02:36:21;;;;;;;0.50;0.50;;;21.60;60.30;21.20;97703.00;;;;5095853;28;20199;-75
2022/06/22 02:38:51;;;;;;;0.75;0.75;;;21.70;59.40;21.20;97698.00;;;;5095975;28;20235;-75
2022/06/22 02:44:30;;;;;;;0.77;0.77;;;21.70;58.60;21.30;97675.00;;;;5095712;28;20634;-75
2022/06/22 02:47:10;;;;;;;0.73;0.73;;;21.70;58.30;21.30;97664.00;;;;5095675;28;20260;-74
2022/06/22 02:49:44;;;;;;;0.88;0.88;;;21.60;57.80;21.30;97654.00;;;;5095625;28;20193;-75
2022/06/22 02:52:14;;;;;;;1.20;1.17;;;21.70;57.30;21.10;97649.00;;;;5095588;28;20646;-75
2022/06/22 02:54:47;;;;;;;0.70;0.70;;;21.60;56.40;21.20;97660.00;;;;5095527;28;20221;-75
2022/06/22 02:57:29;;;;;;;0.60;0.60;;;21.60;56.50;21.20;97682.00;;;;5096013;28;20205;-75
2022/06/22 02:59:57;;;;;;;0.98;0.98;;;21.70;56.80;21.20;97684.00;;;;5096295;28;20237;-75
2022/06/22 03:02:26;;;;;;;1.45;1.35;;;21.60;56.80;21.10;97677.00;;;;5096266;28;20610;-76
2022/06/22 03:04:56;;;;;;;1.27;1.17;;;21.60;57.00;21.00;97681.00;;;;5094792;28;20661;-75
2022/06/22 03:07:24;;;;;;;1.45;1.35;;;21.40;56.70;21.00;97683.00;;;;5077861;28;20203;-76
2022/06/22 03:09:52;;;;;;;0.73;0.73;;;21.40;56.60;21.00;97689.00;;;;5095340;28;20285;-76
2022/06/22 03:12:19;;;;;;;0.50;0.50;;;21.40;57.10;21.00;97696.00;;;;5095404;28;20230;-76
2022/06/22 03:14:55;;;;;;;0.43;0.43;;;21.40;57.40;21.00;97709.00;;;;5095103;28;20791;-75
2022/06/22 03:17:29;;;;;;;2.63;1.25;;;21.30;57.40;20.70;97694.00;;;;5095248;28;20237;-75
2022/06/22 03:20:03;;;;;;;1.13;1.13;;;21.30;58.50;20.70;97698.00;;;;5095176;28;20630;-76
2022/06/22 03:22:34;;;;;;;0.80;0.80;;;21.20;59.30;20.60;97698.00;;;;5095163;28;20629;-76
2022/06/22 03:25:12;;;;;;;1.02;1.02;;;21.10;59.70;20.60;97687.00;;;;5095108;28;20282;-76
2022/06/22 03:27:44;;;;;;;0.80;0.80;;;21.20;60.00;20.70;97690.00;;;;5077195;28;20593;-76
2022/06/22 03:30:16;;;;;;;0.80;0.80;;;21.20;60.30;20.80;97691.00;;;;5077195;28;20199;-76
2022/06/22 03:32:52;;;;;;;1.33;1.23;;;21.20;60.00;20.80;97698.00;;;;5094802;28;20297;-76
2022/06/22 03:35:25;;;;;;;1.30;1.20;;;21.30;60.00;20.90;97672.00;;;;5095042;28;20294;-76
2022/06/22 03:38:00;;;;;;;1.93;1.23;;;21.30;60.20;20.80;97694.00;;;;5096307;28;20194;-76
2022/06/22 03:40:37;;;;;;;1.70;1.60;;;21.30;60.80;20.90;97690.00;;;;5094909;28;20569;-77
2022/06/22 03:43:11;;;;;;;2.47;1.30;;;21.30;61.40;20.90;97702.00;;;;5094841;28;20285;-76
2022/06/22 03:45:44;;;;;;;0.80;0.80;;;21.30;61.80;20.90;97702.00;;;;5095293;28;20475;-76
2022/06/22 03:48:18;;;;;;;1.02;0.90;;;21.20;62.00;20.80;97715.00;;;;5101251;28;20179;-76
2022/06/22 03:50:52;;;;;;;0.93;0.93;;;21.30;62.10;20.80;97714.00;;;;5099287;28;20208;-76
2022/06/22 03:53:24;;;;;;;1.02;1.02;;;21.30;62.00;20.80;97708.00;;;;5095613;28;20237;-76
2022/06/22 03:55:58;;;;;;;0.70;0.70;;;21.30;61.80;20.90;97712.00;;;;5094741;28;20222;-76
2022/06/22 03:58:25;;;;;;;1.23;1.13;;;21.30;61.90;21.00;97698.00;;;;5094667;28;20252;-76
2022/06/22 04:00:54;;;;;;;2.60;1.73;;;21.30;62.30;20.90;97698.00;;;;5094534;28;20546;-76
2022/06/22 04:03:21;;;;;;;1.03;1.03;;;21.40;62.30;20.90;97712.00;;;;5094528;28;20195;-75
2022/06/22 04:05:53;;;;;;;0.50;0.50;;;21.40;62.50;21.00;97707.00;;;;5094401;28;20301;-76
2022/06/22 04:08:29;;;;;;;0.80;0.80;;;21.40;62.80;21.00;97711.00;;;;5094489;28;20266;-76
2022/06/22 04:11:02;;;;;;;1.00;0.98;;;21.40;63.10;21.00;97716.00;;;;5094421;28;20525;-76
2022/06/22 04:13:38;;;;;;;0.90;0.90;;;21.50;63.00;21.10;97714.00;;;;5076729;28;20554;-76
2022/06/22 04:16:10;;;;;;;0.80;0.80;;;21.50;62.70;21.10;97727.00;;;;5093059;28;20689;-76
2022/06/22 04:18:46;;;;;;;0.80;0.80;;;21.50;62.90;21.20;97731.00;;;;5094264;28;20214;-76
2022/06/22 04:21:24;;;;;;;0.98;0.98;;;21.50;63.10;21.20;97728.00;;;;5094210;28;20535;-75
2022/06/22 04:23:55;;;;;;;1.45;1.35;;;21.60;63.50;21.10;97721.00;;;;5094172;28;20218;-76
2022/06/22 04:26:30;;;;;;;0.90;0.90;;;21.50;63.30;21.10;97724.00;;;;5094087;28;20245;-75
2022/06/22 04:29:05;;;;;;;1.10;1.10;;;21.50;63.30;21.10;97720.00;;;;5094086;28;20198;-75
2022/06/22 04:31:38;;;;;;;0.93;0.93;;;21.50;63.50;21.10;97722.00;;;;5094814;28;20737;-75
2022/06/22 04:34:12;;;;;;;1.83;1.40;;;21.50;63.70;21.10;97718.00;;;;5094254;28;20317;-75
2022/06/22 04:36:45;;;;;;;1.03;1.03;;;21.50;63.20;21.10;97716.00;;;;5095022;28;20221;-77
2022/06/22 04:39:19;;;;;;;0.68;0.68;;;21.50;62.80;21.20;97710.00;;;;5101472;28;20282;-79
2022/06/22 04:41:47;;;;;;;0.70;0.70;;;21.50;61.70;21.20;97721.00;;;;5098839;28;20262;-77
2022/06/22 04:44:21;;;;;;;0.85;0.80;;;21.60;60.30;21.20;97718.00;;;;5094389;28;20275;-75
2022/06/22 04:46:53;;;;;;;0.60;0.60;;;21.60;59.70;21.20;97722.00;;;;5093953;28;20275;-76
2022/06/22 04:49:27;;;;;;;0.70;0.70;;;21.60;58.80;21.30;97713.00;;;;5093767;28;20194;-76
2022/06/22 04:52:03;;;;;;;0.88;0.88;;;21.70;58.00;21.40;97721.00;;;;5093803;28;20318;-77
2022/06/22 04:54:36;;;;;;;0.55;0.55;;;21.80;56.80;21.50;97721.00;;;;5095108;28;20226;-76
2022/06/22 04:57:11;;;;;;;1.23;1.23;;;21.80;55.80;21.50;97726.00;;;;5094827;28;20198;-74
2022/06/22 04:59:40;;;;;;;0.77;0.77;;;21.80;56.30;21.60;97725.00;;;;5093736;28;20250;-73
2022/06/22 05:02:12;;;;;;;0.93;0.93;;;21.90;55.90;21.60;97725.00;;;;5093627;28;20769;-73
2022/06/22 05:04:44;;;;;;;0.73;0.73;;;22.00;54.30;21.80;97726.00;;;;5093576;28;20240;-74
2022/06/22 05:07:35;;;;;;;1.40;1.30;;;22.00;54.70;21.70;97723.00;;;;5093753;28;20225;-75
2022/06/22 05:10:10;;;;;;;1.20;1.20;;;22.10;54.50;21.70;97729.00;;;;5093529;28;20279;-73
2022/06/22 05:12:47;;;;;;;0.73;0.73;;;22.10;55.50;21.80;97728.00;;;;5093466;28;20214;-76
2022/06/22 05:15:23;;;;;;;4.07;1.65;;;22.10;56.30;21.80;97729.00;;;;5093436;28;20215;-75
2022/06/22 05:17:53;;;;;;;1.08;1.08;;;22.10;55.30;21.70;97721.00;;;;5093398;28;20194;-75
2022/06/22 05:20:30;;;;;;;0.50;0.50;;;22.10;54.50;21.50;97727.00;;;;5093247;28;20211;-76
2022/06/22 05:23:02;;;;;;;1.05;1.05;;;22.00;54.90;21.60;97728.00;;;;5093370;28;20523;-76
2022/06/22 05:25:31;;;;;;;0.70;0.70;;;22.00;55.40;21.80;97731.00;;;;5093387;28;20219;-75
2022/06/22 05:28:05;;;;;;;0.95;0.95;;;22.10;55.50;21.90;97743.00;;;;5094826;28;20277;-74
2022/06/22 05:30:39;;;;;;;0.70;0.70;;;22.20;55.50;21.90;97749.00;;;;5096892;28;20258;-75
2022/06/22 05:33:11;;;;;;;1.45;1.35;;;22.20;55.00;21.90;97746.00;;;;5078901;28;20209;-75
2022/06/22 05:35:45;;;;;;;1.02;0.98;;;22.20;54.40;21.80;97747.00;;;;5096844;28;20198;-75
2022/06/22 05:38:15;;;;;;;0.60;0.60;;;22.20;54.10;21.70;97756.00;;;;5096446;28;20317;-76
2022/06/22 05:40:45;;;;;;;2.45;2.22;;;22.20;54.50;21.80;97753.00;;;;5096742;28;20183;-75
2022/06/22 05:43:13;;;;;;;1.13;1.13;;;22.20;54.10;21.70;97738.00;;;;5096890;28;20650;-75
2022/06/22 05:45:45;;;;;;;1.17;1.15;;;22.10;53.70;21.60;97748.00;;;;5096480;28;20224;-74
2022/06/22 05:48:19;;;;;;;16.70;0.93;;;22.00;54.20;21.60;97759.00;;;;5096750;28;20201;-75
2022/06/22 05:50:54;;;;;;;0.80;0.80;;;22.00;54.40;21.80;97752.00;;;;5096698;28;20238;-75
2022/06/22 05:53:29;;;;;;;0.60;0.60;;;22.10;53.60;21.70;97753.00;;;;5096423;28;20607;-75
2022/06/22 05:56:17;;;;;;;1.13;1.13;;;22.10;53.50;21.60;97747.00;;;;5096507;28;20210;-73
2022/06/22 05:58:57;;;;;;;0.80;0.80;;;22.00;53.90;21.80;97755.00;;;;5096479;28;20674;-74
2022/06/22 06:01:41;;;;;;;1.85;1.38;;;22.10;53.60;21.80;97766.00;;;;5096519;28;20633;-74
2022/06/22 06:04:20;;;;;;;0.80;0.80;;;22.10;54.10;22.00;97771.00;;;;5078484;28;20575;-74
2022/06/22 06:06:48;;;;;;;1.05;1.05;;;22.30;53.80;22.00;97779.00;;;;5096368;28;20281;-75
2022/06/22 06:09:22;;;;;;;0.68;0.68;;;22.40;52.60;22.20;97782.00;;;;5096306;28;20206;-74
2022/06/22 06:12:01;;;;;;;1.08;1.08;;;22.40;51.90;22.20;97780.00;;;;5095352;28;20687;-75
2022/06/22 06:14:34;;;;;;;0.73;0.73;;;22.50;52.50;22.10;97788.00;;;;5096387;28;20289;-74
2022/06/22 06:17:10;;;;;;;0.80;0.80;;;22.50;50.40;22.40;97787.00;;;;5096271;28;20371;-74
2022/06/22 06:19:43;;;;;;;1.15;1.05;;;22.60;51.20;22.30;97796.00;;;;5096048;28;20232;-75
2022/06/22 06:22:12;;;;;;;1.20;1.10;;;22.70;52.30;22.40;97809.00;;;;5095938;28;20236;-73
2022/06/22 06:27:35;;;;;;;1.20;1.10;;;22.70;52.00;22.30;97829.00;;;;5077393;28;20700;-74
2022/06/22 06:30:12;;;;;;;1.05;1.05;;;22.70;53.20;22.30;97835.00;;;;5095937;28;20230;-74
2022/06/22 06:32:47;;;;;;;1.00;1.00;;;22.60;54.30;22.40;97826.00;;;;5096043;28;20228;-74
2022/06/22 06:35:25;;;;;;;1.27;1.17;;;22.60;54.90;22.50;97831.00;;;;5095916;28;20290;-74
2022/06/22 06:38:02;;;;;;;1.55;1.45;;;22.70;54.70;22.60;97838.00;;;;5095713;28;20273;-73
2022/06/22 06:40:39;;;;;;;0.70;0.70;;;22.80;54.50;22.50;97834.00;;;;5094718;28;20229;-74
2022/06/22 06:43:28;;;;;;;1.33;1.25;;;22.80;53.70;22.70;97830.00;;;;5077984;28;20222;-75
2022/06/22 06:45:56;;;;;;;0.98;0.98;;;23.00;53.10;22.90;97834.00;;;;5095666;28;20646;-75
2022/06/22 06:48:26;;;;;;;1.40;1.33;;;23.10;51.80;23.10;97830.00;;;;5077988;28;20237;-74
2022/06/22 06:50:57;;;;;;;0.60;0.60;;;23.30;51.40;23.20;97833.00;;;;5095668;28;20627;-74
2022/06/22 06:53:31;;;;;;;0.93;0.93;;;23.30;51.10;23.30;97827.00;;;;5095621;28;20297;-75
2022/06/22 06:56:06;;;;;;;0.60;0.60;;;23.50;50.80;23.30;97827.00;;;;5095534;28;20218;-75
2022/06/22 06:58:42;;;;;;;0.77;0.77;;;23.60;50.10;23.30;97831.00;;;;5095441;28;20313;-75
2022/06/22 07:01:17;;;;;;;0.85;0.85;;;23.60;49.80;23.20;97823.00;;;;5095440;28;20226;-74
2022/06/22 07:03:46;;;;;;;1.80;1.70;;;23.60;50.20;23.20;97809.00;;;;5095619;28;20624;-74
2022/06/22 07:06:12;;;;;;;4.00;1.70;;;23.50;50.00;23.10;97824.00;;;;5095349;28;20533;-74
2022/06/22 07:08:48;;;;;;;0.90;0.90;;;23.50;50.60;23.20;97829.00;;;;5095712;28;20227;-74
2022/06/22 07:11:31;;;;;;;1.38;1.30;;;23.50;50.90;23.40;97832.00;;;;5095257;28;20273;-74
2022/06/22 07:14:08;;;;;;;0.75;0.75;;;23.60;50.70;23.40;97830.00;;;;5095388;28;20219;-75
2022/06/22 07:16:36;;;;;;;1.60;1.48;;;23.70;50.60;23.50;97806.00;;;;5095374;28;20202;-75
2022/06/22 07:19:15;;;;;;;1.00;1.00;;;23.80;49.40;23.40;97806.00;;;;5095221;28;20194;-75
2022/06/22 07:21:52;;;;;;;2.03;1.75;;;23.80;49.40;23.40;97822.00;;;;5095148;28;20199;-75
2022/06/22 07:24:29;;;;;;;0.70;0.70;;;23.80;49.80;23.30;97818.00;;;;5095293;28;20222;-75
2022/06/22 07:27:09;;;;;;;0.68;0.68;;;23.70;50.40;23.30;97825.00;;;;5077489;28;20229;-74
2022/06/22 07:29:46;;;;;;;0.60;0.60;;;23.70;50.60;23.50;97821.00;;;;5095001;28;20680;-75
2022/06/22 07:32:33;;;;;;;0.95;0.95;;;23.80;50.30;23.40;97826.00;;;;5077325;28;20288;-74
2022/06/22 07:35:11;;;;;;;1.05;1.02;;;23.80;50.20;23.50;97824.00;;;;5094843;28;20222;-75
2022/06/22 07:37:50;;;;;;;0.80;0.80;;;23.80;49.90;23.50;97801.00;;;;5094898;28;20206;-74
2022/06/22 07:40:23;;;;;;;0.70;0.70;;;23.80;49.00;23.50;97803.00;;;;5094094;28;20512;-75
2022/06/22 07:42:55;;;;;;;0.63;0.63;;;23.80;47.70;23.50;97805.00;;;;5077034;28;20289;-75
2022/06/22 07:45:28;;;;;;;0.57;0.57;;;23.80;47.20;23.40;97810.00;;;;5094727;28;20248;-75
2022/06/22 07:48:02;;;;;;;1.02;1.02;;;23.80;47.20;23.50;97800.00;;;;5094636;28;20285;-75
2022/06/22 07:50:32;;;;;;;0.60;0.60;;;23.80;46.30;23.50;97793.00;;;;5094389;28;20220;-75
2022/06/22 07:53:05;;;;;;;0.80;0.80;;;23.80;46.40;23.40;97793.00;;;;5094720;28;20206;-75
2022/06/22 07:55:45;;;;;;;2.95;1.00;;;23.80;45.60;23.40;97794.00;;;;5094570;28;20199;-74
2022/06/22 07:58:22;;;;;;;0.90;0.90;;;23.70;47.20;23.40;97790.00;;;;5095712;28;20198;-74
2022/06/22 08:00:57;;;;;;;0.70;0.70;;;23.70;46.30;23.40;97787.00;;;;5100199;28;20209;-74
2022/06/22 08:03:33;;;;;;;0.95;0.95;;;23.70;47.50;23.60;97782.00;;;;5101311;28;20238;-74
2022/06/22 08:06:06;;;;;;;0.80;0.80;;;23.80;46.30;23.70;97787.00;;;;5097381;28;20222;-75
2022/06/22 08:08:40;;;;;;;0.52;0.52;;;24.00;47.00;23.70;97784.00;;;;5094294;28;20244;-74
2022/06/22 08:11:14;;;;;;;0.63;0.63;;;24.00;46.20;23.80;97785.00;;;;5094485;28;20277;-75
2022/06/22 08:13:52;;;;;;;1.33;1.23;;;24.10;47.40;23.80;97790.00;;;;5094298;28;20309;-75
2022/06/22 08:16:26;;;;;;;0.85;0.85;;;24.10;46.80;23.80;97786.00;;;;5094409;28;20285;-74
2022/06/22 08:18:54;;;;;;;1.13;1.13;;;24.10;46.80;23.80;97785.00;;;;5094215;28;20308;-75
2022/06/22 08:21:22;;;;;;;0.93;0.93;;;24.10;47.10;23.90;97781.00;;;;5094310;28;20206;-74
2022/06/22 08:23:51;;;;;;;0.50;0.50;;;24.10;47.20;23.80;97792.00;;;;5094095;28;20282;-74
2022/06/22 08:26:24;;;;;;;1.00;0.85;;;24.20;47.30;23.80;97798.00;;;;5094145;28;20282;-74
2022/06/22 08:28:54;;;;;;;0.70;0.70;;;24.10;47.20;23.80;97800.00;;;;5094085;28;20194;-74
2022/06/22 08:31:21;;;;;;;0.63;0.63;;;24.10;46.70;23.70;97809.00;;;;5076099;28;20642;-75
2022/06/22 08:33:54;;;;;;;0.60;0.60;;;24.10;45.70;23.60;97807.00;;;;5093885;28;20246;-75
2022/06/22 08:36:32;;;;;;;1.70;1.60;;;24.00;47.50;23.70;97809.00;;;;5093956;28;20301;-75
2022/06/22 08:39:18;;;;;;;1.52;1.42;;;24.00;47.90;23.60;97810.00;;;;5093933;28;20575;-75
2022/06/22 08:42:00;;;;;;;3.28;1.15;;;24.00;49.00;23.70;97812.00;;;;5093745;28;20222;-75
2022/06/22 08:44:40;;;;;;;0.70;0.70;;;24.00;48.70;23.70;97802.00;;;;5093885;28;20198;-75
2022/06/22 08:47:49;;;;;;;0.93;0.90;;;24.00;48.40;23.60;97816.00;;;;5094302;28;20222;-75
2022/06/22 08:50:50;;;;;;;1.13;1.05;;;24.00;48.50;23.70;97821.00;;;;5093547;28;20221;-75
2022/06/22 08:53:41;;;;;;;1.02;1.02;;;24.00;49.40;23.50;97810.00;;;;5076018;28;20250;-74
2022/06/22 08:56:26;;;;;;;1.25;1.25;;;23.90;49.60;23.30;97823.00;;;;5093915;28;20194;-75
2022/06/22 08:59:27;;;;;;;1.17;1.17;;;;;23.30;97824.00;;;;5093830;28;20637;-74
2022/06/22 09:02:11;;;;;;;1.10;1.02;;;;;23.40;97834.00;;;;5094883;28;20195;-73
2022/06/22 09:05:02;;;;;;;0.85;0.85;;;;;23.40;97836.00;;;;5100514;28;20226;-75
2022/06/22 09:07:44;;;;;;;0.82;0.82;;;;;23.30;97832.00;;;;5100308;28;20202;-75
2022/06/22 09:10:37;;;;;;;0.77;0.77;;;;;23.40;97830.00;;;;5100388;28;20217;-75
2022/06/22 09:13:36;;;;;;;1.52;1.42;;;;;23.20;97828.00;;;;5100878;28;20201;-75
2022/06/22 09:16:16;;;;;;;0.80;0.80;;;;;23.40;97837.00;;;;5105830;28;20232;-75
2022/06/22 09:19:06;;;;;;;1.60;1.50;;;;;23.40;97835.00;;;;5103039;28;20200;-75
2022/06/22 09:21:47;;;;;;;0.80;0.80;;;;;23.40;97841.00;;;;5100301;28;20228;-75
2022/06/22 09:24:20;;;;;;;1.13;1.08;;;;;23.60;97846.00;;;;5100186;28;20222;-74
2022/06/22 09:27:03;;;;;;;0.55;0.55;;;;;23.50;97839.00;;;;5100024;28;20530;-74
2022/06/22 09:29:40;;;;;;;1.55;1.50;;;;;23.50;97838.00;;;;5099986;28;20342;-74
2022/06/22 09:32:36;;;;;;;1.40;1.40;;;;;23.60;97841.00;;;;5100087;28;20230;-75
2022/06/22 09:35:32;;;;;;;0.82;0.82;;;;;23.60;97836.00;;;;5099964;28;20233;-74
2022/06/22 09:38:18;;;;;;;1.38;1.27;;;;;23.70;97839.00;;;;5064738;28;20681;-74
2022/06/22 09:40:58;;;;;;;1.65;1.17;;;;;23.80;97844.00;;;;5100015;28;20203;-75
2022/06/22 09:43:53;;;;;;;1.25;1.25;;;;;24.00;97841.00;;;;5099840;28;20301;-74
2022/06/22 09:46:46;;;;;;;0.63;0.63;;;;;23.80;97845.00;;;;5099991;28;20286;-74
2022/06/22 09:49:38;;;;;;;0.90;0.90;;;;;23.70;97849.00;;;;5099843;28;20218;-75
2022/06/22 09:52:33;;;;;;;0.70;0.70;;;;;23.60;97851.00;;;;5081950;28;20275;-73
2022/06/22 09:58:55;;;;;;;1.77;1.23;;;;;23.80;97856.00;;;;5099732;28;20650;-74
2022/06/22 10:01:32;;;;;;;0.90;0.90;;;;;23.70;97854.00;;;;5066541;28;20240;-74
2022/06/22 10:04:27;;;;;;;1.50;1.48;;;;;23.90;97857.00;;;;5099611;28;20224;-73
2022/06/22 10:07:12;;;;;;;0.80;0.80;;;;;24.10;97863.00;;;;5099716;28;20194;-72
2022/06/22 10:10:03;;;;;;;0.60;0.60;;;;;24.00;97860.00;;;;5099725;28;20281;-72
2022/06/22 10:12:57;;;;;;;0.65;0.65;;;;;23.90;97861.00;;;;5099458;28;20282;-74
2022/06/22 10:15:47;;;;;;;0.93;0.93;;;;;24.20;97866.00;;;;5096111;28;20218;-75
2022/06/22 10:18:36;;;;;;;1.00;1.00;;;;;24.10;97863.00;;;;5096341;28;20195;-74
2022/06/22 10:21:17;;;;;;;0.70;0.70;;;;;24.00;97860.00;;;;5096112;28;20197;-75
2022/06/22 10:23:58;;;;;;;0.65;0.65;;;;;24.00;97868.00;;;;5096014;28;20237;-75
2022/06/22 10:26:48;;;;;;;0.70;0.70;;;;;24.10;97861.00;;;;5096040;28;20207;-75
2022/06/22 10:29:47;;;;;;;0.90;0.90;;;;;24.20;97862.00;;;;5095929;28;20234;-74
2022/06/22 10:32:36;;;;;;;1.67;1.58;;;;;23.90;97877.00;;;;5095963;28;20645;-74
2022/06/22 10:35:14;;;;;;;1.00;1.00;;;;;23.90;97871.00;;;;5095918;28;20253;-75
2022/06/22 10:38:05;;;;;;;1.70;1.60;;;;;24.00;97872.00;;;;5095807;28;20204;-75
2022/06/22 10:47:28;;;;;;;0.43;0.43;;;;;23.80;97883.00;;;;5077854;28;20318;-75
2022/06/22 10:50:13;;;;;;;1.45;1.40;;;;;23.70;97885.00;;;;5095698;28;20218;-75
2022/06/22 10:53:00;;;;;;;1.30;1.13;;;;;23.50;97897.00;;;;5095806;28;20216;-75
2022/06/22 10:55:43;;;;;;;6.60;1.73;;;;;23.70;97893.00;;;;5095472;28;20258;-75
2022/06/22 10:58:38;;;;;;;0.95;0.93;;;;;23.60;97891.00;;;;5095807;28;20186;-75
2022/06/22 11:01:32;;;;;;;0.73;0.73;;;;;23.70;97894.00;;;;5093733;28;20269;-77
2022/06/22 11:04:35;;;;;;;0.82;0.82;;;;;23.50;97898.00;;;;5081896;28;20218;-74
2022/06/22 11:07:38;;;;;;;0.93;0.93;;;;;23.60;97898.00;;;;5095391;28;20304;-75
2022/06/22 11:10:23;;;;;;;0.73;0.73;;;;;23.60;97908.00;;;;5095379;28;20206;-75
2022/06/22 11:13:06;;;;;;;0.80;0.80;;;;;23.80;97913.00;;;;5095310;28;20312;-75
2022/06/22 11:16:02;;;;;;;1.30;1.30;;;;;23.80;97910.00;;;;5095545;28;20699;-75
2022/06/22 11:19:11;;;;;;;1.10;1.10;;;;;23.80;97920.00;;;;5094861;28;20230;-75
2022/06/22 11:21:58;;;;;;;0.55;0.55;;;;;23.80;97918.00;;;;5074698;28;20211;-75
2022/06/22 11:30:48;;;;;;;0.90;0.90;;;;;23.70;97927.00;;;;5095066;28;20313;-75
2022/06/22 11:31:26;;;;;;;1.67;1.15;;;;;23.40;97930.00;;;;5095120;28;20221;-75
2022/06/22 11:34:19;;;;;;;1.00;0.90;;;;;23.40;97940.00;;;;5094768;28;20688;-75
2022/06/22 11:36:53;;;;;;;0.63;0.63;;;;;23.30;97936.00;;;;5095028;28;20199;-73
2022/06/22 11:39:44;;;;;;;1.88;1.30;;;;;23.50;97934.00;;;;5095122;28;20194;-74
2022/06/22 11:42:24;;;;;;;0.43;0.43;;;;;23.20;97934.00;;;;5094949;28;20191;-75
2022/06/22 11:48:27;;;;;;;0.85;0.85;;;;;23.10;97922.00;;;;5076925;28;20640;-74
2022/06/22 11:51:11;;;;;;;0.80;0.80;;;;;23.20;97936.00;;;;5054126;28;20584;-75
2022/06/22 11:54:03;;;;;;;0.52;0.52;;;;;23.00;97934.00;;;;5094793;28;20245;-75
2022/06/22 11:56:46;;;;;;;0.98;0.98;;;;;23.30;97931.00;;;;5083928;28;20234;-74
2022/06/22 11:59:32;;;;;;;0.63;0.63;;;;;23.30;97927.00;;;;5094630;28;20199;-76
2022/06/22 12:02:22;;;;;;;1.75;1.13;;;;;23.30;97922.00;;;;5094375;28;20187;-75
2022/06/22 12:05:20;;;;;;;0.70;0.70;;;;;23.30;97919.00;;;;5094381;28;20259;-76
2022/06/22 12:08:18;;;;;;;0.80;0.80;;;;;23.50;97913.00;;;;5094310;28;20235;-75
2022/06/22 12:10:50;;;;;;;1.17;1.10;;;;;23.70;97912.00;;;;5094377;28;20198;-76
2022/06/22 12:13:40;;;;;;;0.60;0.60;;;;;23.70;97907.00;;;;5093475;28;20321;-76
2022/06/22 12:16:18;;;;;;;0.90;0.90;;;;;23.90;97894.00;;;;5094356;28;20608;-76
2022/06/22 12:19:03;;;;;;;0.60;0.60;;;;;24.30;97894.00;;;;5094246;28;20246;-75
2022/06/22 12:21:58;;;;;;;0.93;0.85;;;;;24.30;97892.00;;;;5094534;28;20509;-74
2022/06/22 12:24:35;;;;;;;0.80;0.80;;;;;24.20;97890.00;;;;5076394;28;20233;-75
2022/06/22 12:27:17;;;;;;;0.90;0.90;;;;;24.20;97901.00;;;;5076564;28;20194;-75
2022/06/22 12:30:23;;;;;;;2.08;1.23;;;;;24.20;97894.00;;;;5094054;28;20623;-75
2022/06/22 12:32:56;;;;;;;0.65;0.65;;;;;24.20;97890.00;;;;5012683;28;20286;-75
2022/06/22 12:35:36;;;;;;;0.88;0.88;;;;;23.90;97886.00;;;;5066361;28;20526;-74